sensor_id;sensor_type;location;lat;lon;timestamp;P1;durP1;ratioP1;P2;durP2;ratioP2
19705;SDS011;10003;52.506;4.700;2023-02-08T00:01:39;1.87;;;1.87;;
19705;SDS011;10003;52.506;4.700;2023-02-08T00:04:07;3.60;;;3.30;;
19705;SDS011;10003;52.506;4.700;2023-02-08T00:06:35;1.43;;;1.43;;
19705;SDS011;10003;52.506;4.700;2023-02-08T00:09:05;1.57;;;1.47;;
19705;SDS011;10003;52.506;4.700;2023-02-08T00:11:34;1.83;;;1.73;;
19705;SDS011;10003;52.506;4.700;2023-02-08T00:14:02;2.10;;;2.10;;
19705;SDS011;10003;52.506;4.700;2023-02-08T00:16:31;1.13;;;1.13;;
19705;SDS011;10003;52.506;4.700;2023-02-08T00:18:59;2.50;;;2.40;;
19705;SDS011;10003;52.506;4.700;2023-02-08T00:21:28;1.20;;;1.20;;
19705;SDS011;10003;52.506;4.700;2023-02-08T00:23:56;2.67;;;2.50;;
19705;SDS011;10003;52.506;4.700;2023-02-08T00:26:26;1.73;;;1.73;;
19705;SDS011;10003;52.506;4.700;2023-02-08T00:28:54;2.03;;;1.97;;
19705;SDS011;10003;52.506;4.700;2023-02-08T00:31:23;1.37;;;1.37;;
19705;SDS011;10003;52.506;4.700;2023-02-08T00:33:51;0.93;;;0.93;;
19705;SDS011;10003;52.506;4.700;2023-02-08T00:36:20;0.87;;;0.87;;
19705;SDS011;10003;52.506;4.700;2023-02-08T00:38:48;2.20;;;2.10;;
19705;SDS011;10003;52.506;4.700;2023-02-08T00:41:16;2.17;;;2.17;;
19705;SDS011;10003;52.506;4.700;2023-02-08T00:43:46;1.40;;;1.33;;
19705;SDS011;10003;52.506;4.700;2023-02-08T00:46:14;0.80;;;0.80;;
19705;SDS011;10003;52.506;4.700;2023-02-08T00:48:43;1.60;;;1.60;;
19705;SDS011;10003;52.506;4.700;2023-02-08T00:51:12;2.67;;;2.57;;
19705;SDS011;10003;52.506;4.700;2023-02-08T00:53:41;1.13;;;1.13;;
19705;SDS011;10003;52.506;4.700;2023-02-08T00:56:11;2.07;;;2.03;;
19705;SDS011;10003;52.506;4.700;2023-02-08T00:58:40;2.50;;;2.40;;
19705;SDS011;10003;52.506;4.700;2023-02-08T01:01:09;0.90;;;0.90;;
19705;SDS011;10003;52.506;4.700;2023-02-08T01:03:38;0.90;;;0.90;;
19705;SDS011;10003;52.506;4.700;2023-02-08T01:06:09;2.33;;;2.23;;
19705;SDS011;10003;52.506;4.700;2023-02-08T01:08:37;1.20;;;1.20;;
19705;SDS011;10003;52.506;4.700;2023-02-08T01:11:06;0.90;;;0.90;;
19705;SDS011;10003;52.506;4.700;2023-02-08T01:13:35;1.77;;;1.67;;
19705;SDS011;10003;52.506;4.700;2023-02-08T01:16:04;0.80;;;0.80;;
19705;SDS011;10003;52.506;4.700;2023-02-08T01:18:34;2.10;;;2.00;;
19705;SDS011;10003;52.506;4.700;2023-02-08T01:21:04;1.13;;;1.13;;
19705;SDS011;10003;52.506;4.700;2023-02-08T01:23:33;1.10;;;1.10;;
19705;SDS011;10003;52.506;4.700;2023-02-08T01:26:01;17.70;;;3.37;;
19705;SDS011;10003;52.506;4.700;2023-02-08T01:28:29;1.27;;;1.27;;
19705;SDS011;10003;52.506;4.700;2023-02-08T01:30:58;6.80;;;1.73;;
19705;SDS011;10003;52.506;4.700;2023-02-08T01:33:27;1.57;;;1.57;;
19705;SDS011;10003;52.506;4.700;2023-02-08T01:35:57;1.10;;;1.10;;
19705;SDS011;10003;52.506;4.700;2023-02-08T01:38:25;2.90;;;2.80;;
19705;SDS011;10003;52.506;4.700;2023-02-08T01:40:54;1.77;;;1.70;;
19705;SDS011;10003;52.506;4.700;2023-02-08T01:43:23;2.33;;;2.17;;
19705;SDS011;10003;52.506;4.700;2023-02-08T01:45:52;1.30;;;1.30;;
19705;SDS011;10003;52.506;4.700;2023-02-08T01:48:21;1.10;;;1.10;;
19705;SDS011;10003;52.506;4.700;2023-02-08T01:50:51;3.80;;;3.47;;
19705;SDS011;10003;52.506;4.700;2023-02-08T01:53:22;0.93;;;0.93;;
19705;SDS011;10003;52.506;4.700;2023-02-08T01:55:53;0.90;;;0.90;;
19705;SDS011;10003;52.506;4.700;2023-02-08T01:58:22;1.37;;;1.37;;
19705;SDS011;10003;52.506;4.700;2023-02-08T02:00:53;3.17;;;3.00;;
19705;SDS011;10003;52.506;4.700;2023-02-08T02:03:22;1.20;;;1.20;;
19705;SDS011;10003;52.506;4.700;2023-02-08T02:05:51;4.40;;;4.10;;
19705;SDS011;10003;52.506;4.700;2023-02-08T02:08:23;4.37;;;2.93;;
19705;SDS011;10003;52.506;4.700;2023-02-08T02:10:51;1.73;;;1.73;;
19705;SDS011;10003;52.506;4.700;2023-02-08T02:13:20;1.70;;;1.70;;
19705;SDS011;10003;52.506;4.700;2023-02-08T02:15:49;2.37;;;2.27;;
19705;SDS011;10003;52.506;4.700;2023-02-08T02:18:20;1.40;;;1.40;;
19705;SDS011;10003;52.506;4.700;2023-02-08T02:20:57;3.90;;;1.63;;
19705;SDS011;10003;52.506;4.700;2023-02-08T02:32:03;2.03;;;1.93;;
19705;SDS011;10003;52.506;4.700;2023-02-08T02:34:33;1.07;;;1.07;;
19705;SDS011;10003;52.506;4.700;2023-02-08T02:37:08;1.20;;;1.20;;
19705;SDS011;10003;52.506;4.700;2023-02-08T02:39:39;1.33;;;1.33;;
19705;SDS011;10003;52.506;4.700;2023-02-08T02:42:11;1.17;;;1.17;;
19705;SDS011;10003;52.506;4.700;2023-02-08T02:45:02;1.20;;;1.20;;
19705;SDS011;10003;52.506;4.700;2023-02-08T02:47:36;2.20;;;2.10;;
19705;SDS011;10003;52.506;4.700;2023-02-08T02:50:07;1.83;;;1.73;;
19705;SDS011;10003;52.506;4.700;2023-02-08T02:52:38;1.20;;;1.20;;
19705;SDS011;10003;52.506;4.700;2023-02-08T02:55:08;2.43;;;2.33;;
19705;SDS011;10003;52.506;4.700;2023-02-08T02:57:37;1.70;;;1.70;;
19705;SDS011;10003;52.506;4.700;2023-02-08T03:00:09;1.83;;;1.73;;
19705;SDS011;10003;52.506;4.700;2023-02-08T03:02:40;1.23;;;1.23;;
19705;SDS011;10003;52.506;4.700;2023-02-08T03:05:10;8.97;;;4.00;;
19705;SDS011;10003;52.506;4.700;2023-02-08T03:07:47;3.63;;;3.43;;
19705;SDS011;10003;52.506;4.700;2023-02-08T03:10:35;4.23;;;2.00;;
19705;SDS011;10003;52.506;4.700;2023-02-08T03:13:08;1.43;;;1.43;;
19705;SDS011;10003;52.506;4.700;2023-02-08T03:15:42;1.10;;;1.10;;
19705;SDS011;10003;52.506;4.700;2023-02-08T03:18:18;3.27;;;3.13;;
19705;SDS011;10003;52.506;4.700;2023-02-08T03:20:49;0.80;;;0.80;;
19705;SDS011;10003;52.506;4.700;2023-02-08T03:23:23;1.90;;;1.80;;
19705;SDS011;10003;52.506;4.700;2023-02-08T03:25:56;1.20;;;1.20;;
19705;SDS011;10003;52.506;4.700;2023-02-08T03:28:27;4.00;;;3.80;;
19705;SDS011;10003;52.506;4.700;2023-02-08T03:31:00;1.00;;;1.00;;
19705;SDS011;10003;52.506;4.700;2023-02-08T03:33:33;1.63;;;1.63;;
19705;SDS011;10003;52.506;4.700;2023-02-08T03:36:03;1.30;;;1.30;;
19705;SDS011;10003;52.506;4.700;2023-02-08T03:38:33;1.30;;;1.30;;
19705;SDS011;10003;52.506;4.700;2023-02-08T03:41:03;1.00;;;1.00;;
19705;SDS011;10003;52.506;4.700;2023-02-08T03:43:34;1.87;;;1.87;;
19705;SDS011;10003;52.506;4.700;2023-02-08T03:46:05;1.33;;;1.33;;
19705;SDS011;10003;52.506;4.700;2023-02-08T03:48:37;1.87;;;1.87;;
19705;SDS011;10003;52.506;4.700;2023-02-08T03:51:07;21.57;;;2.37;;
19705;SDS011;10003;52.506;4.700;2023-02-08T03:53:36;5.60;;;3.20;;
19705;SDS011;10003;52.506;4.700;2023-02-08T03:56:06;0.83;;;0.83;;
19705;SDS011;10003;52.506;4.700;2023-02-08T03:58:39;2.70;;;2.60;;
19705;SDS011;10003;52.506;4.700;2023-02-08T04:01:11;2.73;;;1.83;;
19705;SDS011;10003;52.506;4.700;2023-02-08T04:03:42;0.90;;;0.90;;
19705;SDS011;10003;52.506;4.700;2023-02-08T04:06:11;1.33;;;1.33;;
19705;SDS011;10003;52.506;4.700;2023-02-08T04:08:40;2.40;;;2.30;;
19705;SDS011;10003;52.506;4.700;2023-02-08T04:11:08;1.10;;;1.10;;
19705;SDS011;10003;52.506;4.700;2023-02-08T04:13:36;2.43;;;2.33;;
19705;SDS011;10003;52.506;4.700;2023-02-08T04:16:05;2.57;;;2.37;;
19705;SDS011;10003;52.506;4.700;2023-02-08T04:18:34;1.77;;;1.77;;
19705;SDS011;10003;52.506;4.700;2023-02-08T04:21:03;1.83;;;1.83;;
19705;SDS011;10003;52.506;4.700;2023-02-08T04:23:32;1.20;;;1.20;;
19705;SDS011;10003;52.506;4.700;2023-02-08T04:26:00;1.87;;;1.77;;
19705;SDS011;10003;52.506;4.700;2023-02-08T04:28:29;1.57;;;1.57;;
19705;SDS011;10003;52.506;4.700;2023-02-08T04:30:57;3.27;;;3.17;;
19705;SDS011;10003;52.506;4.700;2023-02-08T04:33:26;1.73;;;1.73;;
19705;SDS011;10003;52.506;4.700;2023-02-08T04:35:54;0.93;;;0.93;;
19705;SDS011;10003;52.506;4.700;2023-02-08T04:38:24;2.13;;;2.10;;
19705;SDS011;10003;52.506;4.700;2023-02-08T04:40:52;3.63;;;3.53;;
19705;SDS011;10003;52.506;4.700;2023-02-08T04:43:21;0.87;;;0.87;;
19705;SDS011;10003;52.506;4.700;2023-02-08T04:45:49;1.40;;;1.20;;
19705;SDS011;10003;52.506;4.700;2023-02-08T04:48:18;0.90;;;0.90;;
19705;SDS011;10003;52.506;4.700;2023-02-08T04:50:46;1.50;;;1.50;;
19705;SDS011;10003;52.506;4.700;2023-02-08T04:53:15;1.17;;;1.17;;
19705;SDS011;10003;52.506;4.700;2023-02-08T04:55:45;0.80;;;0.80;;
19705;SDS011;10003;52.506;4.700;2023-02-08T04:58:13;0.97;;;0.97;;
19705;SDS011;10003;52.506;4.700;2023-02-08T05:00:42;2.53;;;2.43;;
19705;SDS011;10003;52.506;4.700;2023-02-08T05:03:10;0.80;;;0.80;;
19705;SDS011;10003;52.506;4.700;2023-02-08T05:05:38;0.87;;;0.87;;
19705;SDS011;10003;52.506;4.700;2023-02-08T05:08:07;1.47;;;1.37;;
19705;SDS011;10003;52.506;4.700;2023-02-08T05:10:35;1.47;;;1.47;;
19705;SDS011;10003;52.506;4.700;2023-02-08T05:13:06;5.60;;;5.13;;
19705;SDS011;10003;52.506;4.700;2023-02-08T05:15:34;1.60;;;1.50;;
19705;SDS011;10003;52.506;4.700;2023-02-08T05:18:03;3.07;;;2.87;;
19705;SDS011;10003;52.506;4.700;2023-02-08T05:20:31;2.37;;;2.30;;
19705;SDS011;10003;52.506;4.700;2023-02-08T05:22:59;2.00;;;1.93;;
19705;SDS011;10003;52.506;4.700;2023-02-08T05:25:28;0.90;;;0.90;;
19705;SDS011;10003;52.506;4.700;2023-02-08T05:27:57;1.87;;;1.77;;
19705;SDS011;10003;52.506;4.700;2023-02-08T05:30:27;0.90;;;0.90;;
19705;SDS011;10003;52.506;4.700;2023-02-08T05:32:56;1.13;;;1.13;;
19705;SDS011;10003;52.506;4.700;2023-02-08T05:35:25;1.90;;;1.80;;
19705;SDS011;10003;52.506;4.700;2023-02-08T05:37:53;1.00;;;1.00;;
19705;SDS011;10003;52.506;4.700;2023-02-08T05:40:21;3.20;;;3.10;;
19705;SDS011;10003;52.506;4.700;2023-02-08T05:42:50;1.47;;;1.47;;
19705;SDS011;10003;52.506;4.700;2023-02-08T05:45:18;1.33;;;1.33;;
19705;SDS011;10003;52.506;4.700;2023-02-08T05:47:48;2.00;;;1.90;;
19705;SDS011;10003;52.506;4.700;2023-02-08T05:50:17;0.90;;;0.90;;
19705;SDS011;10003;52.506;4.700;2023-02-08T05:52:45;3.30;;;3.10;;
19705;SDS011;10003;52.506;4.700;2023-02-08T05:55:14;1.00;;;1.00;;
19705;SDS011;10003;52.506;4.700;2023-02-08T05:57:42;2.57;;;1.40;;
19705;SDS011;10003;52.506;4.700;2023-02-08T06:00:11;2.13;;;2.07;;
19705;SDS011;10003;52.506;4.700;2023-02-08T06:02:39;1.60;;;1.60;;
19705;SDS011;10003;52.506;4.700;2023-02-08T06:05:09;2.23;;;2.13;;
19705;SDS011;10003;52.506;4.700;2023-02-08T06:07:38;0.80;;;0.80;;
19705;SDS011;10003;52.506;4.700;2023-02-08T06:10:07;1.90;;;1.90;;
19705;SDS011;10003;52.506;4.700;2023-02-08T06:12:36;2.87;;;2.77;;
19705;SDS011;10003;52.506;4.700;2023-02-08T06:15:05;2.73;;;2.60;;
19705;SDS011;10003;52.506;4.700;2023-02-08T06:17:33;1.50;;;1.50;;
19705;SDS011;10003;52.506;4.700;2023-02-08T06:20:02;2.77;;;2.57;;
19705;SDS011;10003;52.506;4.700;2023-02-08T06:22:34;1.00;;;1.00;;
19705;SDS011;10003;52.506;4.700;2023-02-08T06:25:02;2.13;;;1.40;;
19705;SDS011;10003;52.506;4.700;2023-02-08T06:27:31;1.70;;;1.57;;
19705;SDS011;10003;52.506;4.700;2023-02-08T06:30:00;2.23;;;2.10;;
19705;SDS011;10003;52.506;4.700;2023-02-08T06:32:28;2.07;;;1.97;;
19705;SDS011;10003;52.506;4.700;2023-02-08T06:34:57;3.50;;;3.30;;
19705;SDS011;10003;52.506;4.700;2023-02-08T06:37:25;2.03;;;1.93;;
19705;SDS011;10003;52.506;4.700;2023-02-08T06:39:55;2.10;;;2.00;;
19705;SDS011;10003;52.506;4.700;2023-02-08T06:42:28;3.80;;;3.60;;
19705;SDS011;10003;52.506;4.700;2023-02-08T06:44:57;1.70;;;1.60;;
19705;SDS011;10003;52.506;4.700;2023-02-08T06:47:27;1.63;;;1.63;;
19705;SDS011;10003;52.506;4.700;2023-02-08T06:49:55;0.90;;;0.90;;
19705;SDS011;10003;52.506;4.700;2023-02-08T06:52:24;1.57;;;1.57;;
19705;SDS011;10003;52.506;4.700;2023-02-08T06:54:52;2.17;;;2.07;;
19705;SDS011;10003;52.506;4.700;2023-02-08T06:57:22;2.17;;;2.07;;
19705;SDS011;10003;52.506;4.700;2023-02-08T06:59:50;1.60;;;1.60;;
19705;SDS011;10003;52.506;4.700;2023-02-08T07:02:19;1.07;;;1.07;;
19705;SDS011;10003;52.506;4.700;2023-02-08T07:04:48;1.50;;;1.50;;
19705;SDS011;10003;52.506;4.700;2023-02-08T07:07:16;0.97;;;0.97;;
19705;SDS011;10003;52.506;4.700;2023-02-08T07:09:45;1.80;;;1.70;;
19705;SDS011;10003;52.506;4.700;2023-02-08T07:12:13;3.70;;;3.53;;
19705;SDS011;10003;52.506;4.700;2023-02-08T07:14:43;1.07;;;1.07;;
19705;SDS011;10003;52.506;4.700;2023-02-08T07:17:12;0.80;;;0.80;;
19705;SDS011;10003;52.506;4.700;2023-02-08T07:19:40;1.53;;;1.53;;
19705;SDS011;10003;52.506;4.700;2023-02-08T07:22:09;1.10;;;1.10;;
19705;SDS011;10003;52.506;4.700;2023-02-08T07:24:38;0.90;;;0.90;;
19705;SDS011;10003;52.506;4.700;2023-02-08T07:27:08;2.63;;;2.43;;
19705;SDS011;10003;52.506;4.700;2023-02-08T07:29:36;0.80;;;0.80;;
19705;SDS011;10003;52.506;4.700;2023-02-08T07:32:06;1.10;;;1.10;;
19705;SDS011;10003;52.506;4.700;2023-02-08T07:34:36;4.50;;;2.67;;
19705;SDS011;10003;52.506;4.700;2023-02-08T07:37:06;1.77;;;1.77;;
19705;SDS011;10003;52.506;4.700;2023-02-08T07:39:34;1.37;;;1.37;;
19705;SDS011;10003;52.506;4.700;2023-02-08T07:42:07;1.70;;;1.70;;
19705;SDS011;10003;52.506;4.700;2023-02-08T07:44:35;1.93;;;1.83;;
19705;SDS011;10003;52.506;4.700;2023-02-08T07:47:04;5.23;;;4.73;;
19705;SDS011;10003;52.506;4.700;2023-02-08T07:49:35;4.53;;;4.13;;
19705;SDS011;10003;52.506;4.700;2023-02-08T07:52:03;0.90;;;0.90;;
19705;SDS011;10003;52.506;4.700;2023-02-08T07:54:32;2.40;;;2.23;;
19705;SDS011;10003;52.506;4.700;2023-02-08T07:57:00;2.63;;;2.43;;
19705;SDS011;10003;52.506;4.700;2023-02-08T07:59:29;4.60;;;4.20;;
19705;SDS011;10003;52.506;4.700;2023-02-08T08:04:53;2.40;;;2.30;;
19705;SDS011;10003;52.506;4.700;2023-02-08T08:07:21;1.47;;;1.47;;
19705;SDS011;10003;52.506;4.700;2023-02-08T08:09:50;1.10;;;1.10;;
19705;SDS011;10003;52.506;4.700;2023-02-08T08:12:18;1.30;;;1.23;;
19705;SDS011;10003;52.506;4.700;2023-02-08T08:14:46;1.13;;;1.13;;
19705;SDS011;10003;52.506;4.700;2023-02-08T08:17:15;5.43;;;3.43;;
19705;SDS011;10003;52.506;4.700;2023-02-08T08:19:43;1.40;;;1.40;;
19705;SDS011;10003;52.506;4.700;2023-02-08T08:22:13;0.90;;;0.90;;
19705;SDS011;10003;52.506;4.700;2023-02-08T08:24:42;4.40;;;4.10;;
19705;SDS011;10003;52.506;4.700;2023-02-08T08:27:10;2.37;;;2.27;;
19705;SDS011;10003;52.506;4.700;2023-02-08T08:33:11;2.53;;;2.43;;
19705;SDS011;10003;52.506;4.700;2023-02-08T08:33:44;3.87;;;3.67;;
19705;SDS011;10003;52.506;4.700;2023-02-08T08:36:13;1.57;;;1.57;;
19705;SDS011;10003;52.506;4.700;2023-02-08T08:38:43;2.13;;;2.03;;
19705;SDS011;10003;52.506;4.700;2023-02-08T08:41:12;4.77;;;4.40;;
19705;SDS011;10003;52.506;4.700;2023-02-08T08:43:42;9.53;;;7.40;;
19705;SDS011;10003;52.506;4.700;2023-02-08T08:46:11;7.67;;;5.13;;
19705;SDS011;10003;52.506;4.700;2023-02-08T08:48:40;12.97;;;9.13;;
19705;SDS011;10003;52.506;4.700;2023-02-08T08:51:29;9.77;;;5.27;;
19705;SDS011;10003;52.506;4.700;2023-02-08T08:54:20;6.03;;;5.37;;
19705;SDS011;10003;52.506;4.700;2023-02-08T08:57:00;8.40;;;5.77;;
19705;SDS011;10003;52.506;4.700;2023-02-08T09:23:56;4.10;;;2.97;;
19705;SDS011;10003;52.506;4.700;2023-02-08T09:27:25;2.53;;;2.30;;
19705;SDS011;10003;52.506;4.700;2023-02-08T09:30:22;8.20;;;6.30;;
19705;SDS011;10003;52.506;4.700;2023-02-08T09:32:51;5.97;;;5.40;;
19705;SDS011;10003;52.506;4.700;2023-02-08T09:35:20;4.57;;;3.57;;
19705;SDS011;10003;52.506;4.700;2023-02-08T09:37:48;7.90;;;7.10;;
19705;SDS011;10003;52.506;4.700;2023-02-08T09:40:23;6.43;;;4.70;;
19705;SDS011;10003;52.506;4.700;2023-02-08T09:42:58;6.33;;;5.53;;
19705;SDS011;10003;52.506;4.700;2023-02-08T09:45:36;5.77;;;5.37;;
19705;SDS011;10003;52.506;4.700;2023-02-08T09:48:27;7.03;;;6.10;;
19705;SDS011;10003;52.506;4.700;2023-02-08T09:50:56;4.13;;;3.33;;
19705;SDS011;10003;52.506;4.700;2023-02-08T09:53:29;8.70;;;5.47;;
19705;SDS011;10003;52.506;4.700;2023-02-08T09:56:03;4.00;;;3.70;;
19705;SDS011;10003;52.506;4.700;2023-02-08T09:58:36;9.03;;;5.63;;
19705;SDS011;10003;52.506;4.700;2023-02-08T10:01:09;11.37;;;7.57;;
19705;SDS011;10003;52.506;4.700;2023-02-08T10:03:40;5.10;;;4.67;;
19705;SDS011;10003;52.506;4.700;2023-02-08T10:06:11;3.03;;;2.93;;
19705;SDS011;10003;52.506;4.700;2023-02-08T10:08:39;5.80;;;5.23;;
19705;SDS011;10003;52.506;4.700;2023-02-08T10:11:17;9.50;;;6.30;;
19705;SDS011;10003;52.506;4.700;2023-02-08T10:16:41;9.23;;;8.27;;
19705;SDS011;10003;52.506;4.700;2023-02-08T10:19:16;9.17;;;8.00;;
19705;SDS011;10003;52.506;4.700;2023-02-08T10:21:51;29.53;;;9.60;;
19705;SDS011;10003;52.506;4.700;2023-02-08T10:24:31;13.53;;;12.00;;
19705;SDS011;10003;52.506;4.700;2023-02-08T10:27:07;12.57;;;8.50;;
19705;SDS011;10003;52.506;4.700;2023-02-08T10:29:45;9.73;;;7.13;;
19705;SDS011;10003;52.506;4.700;2023-02-08T10:32:25;8.03;;;4.90;;
19705;SDS011;10003;52.506;4.700;2023-02-08T10:35:01;12.13;;;9.47;;
19705;SDS011;10003;52.506;4.700;2023-02-08T10:37:30;12.37;;;9.03;;
19705;SDS011;10003;52.506;4.700;2023-02-08T10:40:06;13.37;;;10.97;;
19705;SDS011;10003;52.506;4.700;2023-02-08T10:42:41;9.30;;;7.77;;
19705;SDS011;10003;52.506;4.700;2023-02-08T10:45:14;12.73;;;9.37;;
19705;SDS011;10003;52.506;4.700;2023-02-08T10:47:50;9.83;;;6.73;;
19705;SDS011;10003;52.506;4.700;2023-02-08T10:50:21;7.47;;;6.30;;
19705;SDS011;10003;52.506;4.700;2023-02-08T10:52:55;11.97;;;8.40;;
19705;SDS011;10003;52.506;4.700;2023-02-08T10:55:24;4.47;;;3.33;;
19705;SDS011;10003;52.506;4.700;2023-02-08T10:57:54;8.30;;;7.47;;
19705;SDS011;10003;52.506;4.700;2023-02-08T11:00:25;4.73;;;3.10;;
19705;SDS011;10003;52.506;4.700;2023-02-08T11:02:54;5.77;;;4.17;;
19705;SDS011;10003;52.506;4.700;2023-02-08T11:05:35;12.43;;;10.70;;
19705;SDS011;10003;52.506;4.700;2023-02-08T11:08:06;12.20;;;8.03;;
19705;SDS011;10003;52.506;4.700;2023-02-08T11:10:35;11.23;;;10.07;;
19705;SDS011;10003;52.506;4.700;2023-02-08T11:13:18;13.17;;;8.60;;
19705;SDS011;10003;52.506;4.700;2023-02-08T11:15:57;12.33;;;11.07;;
19705;SDS011;10003;52.506;4.700;2023-02-08T11:18:27;7.30;;;6.47;;
19705;SDS011;10003;52.506;4.700;2023-02-08T11:20:58;14.13;;;10.30;;
19705;SDS011;10003;52.506;4.700;2023-02-08T11:23:27;8.20;;;6.47;;
19705;SDS011;10003;52.506;4.700;2023-02-08T11:26:11;11.23;;;9.70;;
19705;SDS011;10003;52.506;4.700;2023-02-08T11:28:42;11.50;;;10.13;;
19705;SDS011;10003;52.506;4.700;2023-02-08T11:31:15;13.10;;;8.50;;
19705;SDS011;10003;52.506;4.700;2023-02-08T11:33:57;9.30;;;8.33;;
19705;SDS011;10003;52.506;4.700;2023-02-08T11:36:26;10.20;;;8.67;;
19705;SDS011;10003;52.506;4.700;2023-02-08T11:38:59;8.10;;;6.77;;
19705;SDS011;10003;52.506;4.700;2023-02-08T11:41:28;12.63;;;8.37;;
19705;SDS011;10003;52.506;4.700;2023-02-08T11:44:00;6.10;;;5.50;;
19705;SDS011;10003;52.506;4.700;2023-02-08T11:46:30;13.57;;;6.33;;
19705;SDS011;10003;52.506;4.700;2023-02-08T11:49:00;7.23;;;3.93;;
19705;SDS011;10003;52.506;4.700;2023-02-08T11:51:32;21.63;;;15.17;;
19705;SDS011;10003;52.506;4.700;2023-02-08T11:54:02;4.13;;;3.73;;
19705;SDS011;10003;52.506;4.700;2023-02-08T11:56:31;11.10;;;8.00;;
19705;SDS011;10003;52.506;4.700;2023-02-08T11:59:03;6.43;;;4.40;;
19705;SDS011;10003;52.506;4.700;2023-02-08T12:01:33;6.13;;;5.60;;
19705;SDS011;10003;52.506;4.700;2023-02-08T12:04:03;5.67;;;4.97;;
19705;SDS011;10003;52.506;4.700;2023-02-08T12:09:22;11.53;;;9.37;;
19705;SDS011;10003;52.506;4.700;2023-02-08T12:11:53;4.63;;;3.40;;
19705;SDS011;10003;52.506;4.700;2023-02-08T12:14:33;4.70;;;4.27;;
19705;SDS011;10003;52.506;4.700;2023-02-08T12:17:06;6.07;;;5.40;;
19705;SDS011;10003;52.506;4.700;2023-02-08T12:22:25;5.33;;;4.90;;
19705;SDS011;10003;52.506;4.700;2023-02-08T12:24:56;14.27;;;7.93;;
19705;SDS011;10003;52.506;4.700;2023-02-08T12:27:31;8.90;;;7.13;;
19705;SDS011;10003;52.506;4.700;2023-02-08T12:30:09;7.70;;;5.57;;
19705;SDS011;10003;52.506;4.700;2023-02-08T12:32:49;7.33;;;6.13;;
19705;SDS011;10003;52.506;4.700;2023-02-08T12:38:37;5.10;;;4.60;;
19705;SDS011;10003;52.506;4.700;2023-02-08T12:41:46;2.70;;;2.47;;
19705;SDS011;10003;52.506;4.700;2023-02-08T12:44:19;8.70;;;5.73;;
19705;SDS011;10003;52.506;4.700;2023-02-08T12:46:53;5.87;;;3.50;;
19705;SDS011;10003;52.506;4.700;2023-02-08T12:49:37;6.27;;;5.10;;
19705;SDS011;10003;52.506;4.700;2023-02-08T12:52:13;8.60;;;6.00;;
19705;SDS011;10003;52.506;4.700;2023-02-08T12:54:45;7.13;;;5.10;;
19705;SDS011;10003;52.506;4.700;2023-02-08T12:57:15;5.40;;;4.23;;
19705;SDS011;10003;52.506;4.700;2023-02-08T12:59:46;7.27;;;3.50;;
19705;SDS011;10003;52.506;4.700;2023-02-08T13:02:18;5.77;;;4.67;;
19705;SDS011;10003;52.506;4.700;2023-02-08T13:04:50;3.53;;;2.90;;
19705;SDS011;10003;52.506;4.700;2023-02-08T13:07:20;5.80;;;3.50;;
19705;SDS011;10003;52.506;4.700;2023-02-08T13:09:51;4.03;;;2.43;;
19705;SDS011;10003;52.506;4.700;2023-02-08T13:12:22;10.73;;;6.77;;
19705;SDS011;10003;52.506;4.700;2023-02-08T13:14:53;6.07;;;4.57;;
19705;SDS011;10003;52.506;4.700;2023-02-08T13:17:24;5.03;;;4.53;;
19705;SDS011;10003;52.506;4.700;2023-02-08T13:19:55;6.43;;;5.77;;
19705;SDS011;10003;52.506;4.700;2023-02-08T13:22:26;6.47;;;5.60;;
19705;SDS011;10003;52.506;4.700;2023-02-08T13:24:57;2.17;;;1.97;;
19705;SDS011;10003;52.506;4.700;2023-02-08T13:27:36;3.90;;;3.10;;
19705;SDS011;10003;52.506;4.700;2023-02-08T13:30:05;5.83;;;4.60;;
19705;SDS011;10003;52.506;4.700;2023-02-08T13:32:47;5.27;;;3.67;;
19705;SDS011;10003;52.506;4.700;2023-02-08T13:35:18;2.73;;;2.57;;
19705;SDS011;10003;52.506;4.700;2023-02-08T13:37:48;10.33;;;4.50;;
19705;SDS011;10003;52.506;4.700;2023-02-08T13:40:19;5.00;;;4.50;;
19705;SDS011;10003;52.506;4.700;2023-02-08T13:42:55;5.07;;;4.60;;
19705;SDS011;10003;52.506;4.700;2023-02-08T13:45:26;3.10;;;2.80;;
19705;SDS011;10003;52.506;4.700;2023-02-08T13:47:57;3.30;;;3.00;;
19705;SDS011;10003;52.506;4.700;2023-02-08T13:53:42;7.63;;;6.67;;
19705;SDS011;10003;52.506;4.700;2023-02-08T13:56:11;5.97;;;3.47;;
19705;SDS011;10003;52.506;4.700;2023-02-08T14:01:28;5.77;;;4.97;;
19705;SDS011;10003;52.506;4.700;2023-02-08T14:04:25;5.33;;;4.43;;
19705;SDS011;10003;52.506;4.700;2023-02-08T14:07:22;7.10;;;5.53;;
19705;SDS011;10003;52.506;4.700;2023-02-08T14:10:05;7.10;;;5.80;;
19705;SDS011;10003;52.506;4.700;2023-02-08T14:12:37;5.80;;;4.63;;
19705;SDS011;10003;52.506;4.700;2023-02-08T14:17:59;7.37;;;5.23;;
19705;SDS011;10003;52.506;4.700;2023-02-08T14:20:33;4.53;;;4.13;;
19705;SDS011;10003;52.506;4.700;2023-02-08T14:23:06;7.10;;;5.77;;
19705;SDS011;10003;52.506;4.700;2023-02-08T14:25:39;8.13;;;6.07;;
19705;SDS011;10003;52.506;4.700;2023-02-08T14:28:22;6.10;;;4.70;;
19705;SDS011;10003;52.506;4.700;2023-02-08T14:30:52;7.87;;;5.87;;
19705;SDS011;10003;52.506;4.700;2023-02-08T14:33:22;6.07;;;5.40;;
19705;SDS011;10003;52.506;4.700;2023-02-08T14:35:53;5.90;;;5.30;;
19705;SDS011;10003;52.506;4.700;2023-02-08T14:46:58;5.53;;;5.13;;
19705;SDS011;10003;52.506;4.700;2023-02-08T14:49:27;7.00;;;4.47;;
19705;SDS011;10003;52.506;4.700;2023-02-08T14:52:03;6.83;;;6.13;;
19705;SDS011;10003;52.506;4.700;2023-02-08T14:54:34;4.83;;;4.20;;
19705;SDS011;10003;52.506;4.700;2023-02-08T14:57:05;7.40;;;6.27;;
19705;SDS011;10003;52.506;4.700;2023-02-08T14:59:34;9.77;;;7.27;;
19705;SDS011;10003;52.506;4.700;2023-02-08T15:02:09;7.20;;;5.70;;
19705;SDS011;10003;52.506;4.700;2023-02-08T15:04:40;8.70;;;8.00;;
19705;SDS011;10003;52.506;4.700;2023-02-08T15:07:16;7.57;;;6.43;;
19705;SDS011;10003;52.506;4.700;2023-02-08T15:09:47;9.17;;;7.63;;
19705;SDS011;10003;52.506;4.700;2023-02-08T15:12:17;7.23;;;6.33;;
19705;SDS011;10003;52.506;4.700;2023-02-08T15:14:47;7.03;;;6.17;;
19705;SDS011;10003;52.506;4.700;2023-02-08T15:17:21;9.37;;;6.17;;
19705;SDS011;10003;52.506;4.700;2023-02-08T15:19:53;10.47;;;7.73;;
19705;SDS011;10003;52.506;4.700;2023-02-08T15:23:38;6.87;;;6.17;;
19705;SDS011;10003;52.506;4.700;2023-02-08T15:25:39;8.30;;;6.10;;
19705;SDS011;10003;52.506;4.700;2023-02-08T15:28:21;7.23;;;5.90;;
19705;SDS011;10003;52.506;4.700;2023-02-08T15:31:05;6.80;;;4.50;;
19705;SDS011;10003;52.506;4.700;2023-02-08T15:33:39;5.20;;;4.70;;
19705;SDS011;10003;52.506;4.700;2023-02-08T15:39:02;7.23;;;6.53;;
19705;SDS011;10003;52.506;4.700;2023-02-08T15:41:31;8.80;;;6.57;;
19705;SDS011;10003;52.506;4.700;2023-02-08T15:44:01;4.80;;;4.33;;
19705;SDS011;10003;52.506;4.700;2023-02-08T15:46:32;3.97;;;3.60;;
19705;SDS011;10003;52.506;4.700;2023-02-08T15:49:03;6.60;;;5.93;;
19705;SDS011;10003;52.506;4.700;2023-02-08T15:51:32;5.13;;;4.60;;
19705;SDS011;10003;52.506;4.700;2023-02-08T15:54:01;8.27;;;5.27;;
19705;SDS011;10003;52.506;4.700;2023-02-08T15:56:31;8.47;;;6.33;;
19705;SDS011;10003;52.506;4.700;2023-02-08T15:59:11;6.87;;;5.10;;
19705;SDS011;10003;52.506;4.700;2023-02-08T16:01:52;7.70;;;5.77;;
19705;SDS011;10003;52.506;4.700;2023-02-08T16:04:25;6.63;;;6.03;;
19705;SDS011;10003;52.506;4.700;2023-02-08T16:06:54;6.43;;;5.33;;
19705;SDS011;10003;52.506;4.700;2023-02-08T16:09:25;13.77;;;6.83;;
19705;SDS011;10003;52.506;4.700;2023-02-08T16:11:55;7.90;;;6.23;;
19705;SDS011;10003;52.506;4.700;2023-02-08T16:14:26;6.13;;;5.53;;
19705;SDS011;10003;52.506;4.700;2023-02-08T16:19:51;6.07;;;5.10;;
19705;SDS011;10003;52.506;4.700;2023-02-08T16:22:24;6.20;;;5.60;;
19705;SDS011;10003;52.506;4.700;2023-02-08T16:28:16;6.53;;;3.60;;